Time;durP1;ratioP1;P1;durP2;ratioP2;P2;SDS_P1;SDS_P2;PMS_P1;PMS_P2;Temp;Humidity;BMP_temperature;BMP_pressure;BME280_temperature;BME280_humidity;BME280_pressure;Samples;Min_cycle;Max_cycle;Signal;HPM_P1;HPM_P2
2022/02/02 00:00:18;;;;;;;12.82;6.57;;;;;;;;;;10375158;28;20034;-68
2022/02/02 00:05:32;;;;;;;12.23;6.13;;;;;;;;;;10375262;28;20029;-64
2022/02/02 00:21:01;;;;;;;10.27;6.13;;;;;;;;;;10373001;28;20053;-68
2022/02/02 00:26:02;;;;;;;10.02;5.78;;;;;;;;;;10372656;28;21060;-65
2022/02/02 00:31:07;;;;;;;10.25;6.22;;;;;;;;;;10373105;28;20275;-70
2022/02/02 00:36:13;;;;;;;9.63;5.80;;;;;;;;;;10373065;28;20386;-68
2022/02/02 00:41:13;;;;;;;10.40;5.43;;;;;;;;;;10371889;28;20030;-60
2022/02/02 00:46:15;;;;;;;12.15;5.47;;;;;;;;;;10372251;28;20026;-66
2022/02/02 00:51:20;;;;;;;9.65;5.40;;;;;;;;;;10366928;28;20125;-61
2022/02/02 00:56:20;;;;;;;7.70;5.05;;;;;;;;;;10372118;28;20022;-60
2022/02/02 01:01:20;;;;;;;10.80;5.60;;;;;;;;;;10372883;28;20030;-60
2022/02/02 01:06:22;;;;;;;9.57;4.87;;;;;;;;;;10372097;28;20951;-62
2022/02/02 01:32:13;;;;;;;8.30;4.63;;;;;;;;;;10371327;28;20034;-61
2022/02/02 01:37:17;;;;;;;7.45;4.35;;;;;;;;;;10371079;28;20021;-62
2022/02/02 01:42:19;;;;;;;8.50;5.03;;;;;;;;;;10371134;28;20211;-61
2022/02/02 01:47:21;;;;;;;5.63;4.22;;;;;;;;;;10370652;28;20072;-60
2022/02/02 01:57:50;;;;;;;5.05;4.47;;;;;;;;;;10367091;28;20026;-60
2022/02/02 02:02:52;;;;;;;5.90;4.22;;;;;;;;;;10370148;28;20026;-61
2022/02/02 02:07:53;;;;;;;4.95;4.00;;;;;;;;;;10370165;28;20116;-61
2022/02/02 02:12:59;;;;;;;9.63;4.80;;;;;;;;;;10369330;28;20119;-61
2022/02/02 02:18:00;;;;;;;4.82;3.85;;;;;;;;;;10369379;28;20065;-60
2022/02/02 02:23:01;;;;;;;13.57;4.53;;;;;;;;;;10369044;28;20041;-61
2022/02/02 02:28:36;;;;;;;5.93;4.15;;;;;;;;;;10369691;28;20088;-61
2022/02/02 02:34:16;;;;;;;5.25;3.60;;;;;;;;;;10368719;28;20038;-62
2022/02/02 04:03:26;;;;;;;3.65;3.13;;;;;;;;;;10372209;28;20030;-68
2022/02/02 04:08:27;;;;;;;4.45;3.00;;;;;;;;;;10371275;28;20030;-67
2022/02/02 04:55:36;;;;;;;3.30;2.70;;;;;;;;;;10373027;28;20109;-61
2022/02/02 05:05:56;;;;;;;3.15;2.65;;;;;;;;;;10369797;28;20034;-61
2022/02/02 05:52:40;;;;;;;;;;;;;;;;;;10371288;28;20034;-62
2022/02/02 05:57:41;;;;;;;3.75;2.65;;;;;;;;;;10368491;28;20289;-60
2022/02/02 06:02:45;;;;;;;4.63;2.78;;;;;;;;;;10369235;28;20033;-62
2022/02/02 06:07:51;;;;;;;6.32;2.40;;;;;;;;;;10366780;28;20045;-61
2022/02/02 06:12:53;;;;;;;5.80;2.90;;;;;;;;;;10365623;28;20061;-63
2022/02/02 06:17:55;;;;;;;6.57;2.67;;;;;;;;;;10368845;28;20456;-61
2022/02/02 06:23:13;;;;;;;2.60;2.40;;;;;;;;;;10369412;28;20057;-64
2022/02/02 06:28:24;;;;;;;3.40;2.67;;;;;;;;;;10369686;28;20026;-65
2022/02/02 06:33:31;;;;;;;3.80;2.78;;;;;;;;;;10367641;28;20045;-65
2022/02/02 06:38:33;;;;;;;3.70;2.50;;;;;;;;;;10368843;28;20183;-65
2022/02/02 06:43:34;;;;;;;4.65;2.60;;;;;;;;;;10369119;28;20025;-67
2022/02/02 06:48:34;;;;;;;3.22;2.50;;;;;;;;;;10367323;28;20029;-68
2022/02/02 06:53:48;;;;;;;4.05;2.58;;;;;;;;;;10367370;28;20500;-61
2022/02/02 07:04:34;;;;;;;4.13;2.75;;;;;;;;;;10368112;28;20034;-63
2022/02/02 07:20:29;;;;;;;7.30;3.40;;;;;;;;;;10365169;28;20034;-64
2022/02/02 07:25:57;;;;;;;6.43;3.53;;;;;;;;;;10368327;28;20095;-65
2022/02/02 07:36:27;;;;;;;9.55;4.00;;;;;;;;;;10367509;28;20457;-63
2022/02/02 07:41:35;;;;;;;7.22;3.45;;;;;;;;;;10367618;28;20097;-66
2022/02/02 07:46:37;;;;;;;9.93;4.35;;;;;;;;;;10367784;28;20028;-63
2022/02/02 07:51:38;;;;;;;11.75;4.07;;;;;;;;;;10366343;28;20029;-65
2022/02/02 07:56:43;;;;;;;7.00;3.58;;;;;;;;;;10366502;28;20026;-65
2022/02/02 08:01:45;;;;;;;7.28;3.17;;;;;;;;;;10365622;28;20034;-66
2022/02/02 08:06:51;;;;;;;7.75;3.97;;;;;;;;;;10372368;28;20188;-65
2022/02/02 08:11:53;;;;;;;8.52;4.22;;;;;;;;;;10373530;28;20447;-63
2022/02/02 08:16:54;;;;;;;9.68;3.72;;;;;;;;;;10373509;28;20616;-63
2022/02/02 08:21:54;;;;;;;11.17;4.60;;;;;;;;;;10370020;28;20168;-63
2022/02/02 08:26:55;;;;;;;18.53;4.97;;;;;;;;;;10373030;28;20436;-62
2022/02/02 08:31:56;;;;;;;5.60;4.18;;;;;;;;;;10369548;28;20105;-62
2022/02/02 08:36:57;;;;;;;13.77;4.30;;;;;;;;;;10372706;28;20025;-62
2022/02/02 08:42:03;;;;;;;11.95;4.53;;;;;;;;;;10370366;28;20508;-62
2022/02/02 08:47:07;;;;;;;6.15;4.32;;;;;;;;;;10372361;28;20030;-62
2022/02/02 08:52:08;;;;;;;11.05;4.63;;;;;;;;;;10369015;28;20080;-59
2022/02/02 09:02:18;;;;;;;9.65;4.53;;;;;;;;;;10365180;28;20037;-64
2022/02/02 09:07:18;;;;;;;8.13;3.90;;;;;;;;;;10370124;28;20025;-65
2022/02/02 09:38:38;;;;;;;9.35;4.85;;;;;;;;;;10366672;28;20493;-63
2022/02/02 09:43:44;;;;;;;10.80;4.57;;;;;;;;;;10368824;28;20030;-63
2022/02/02 09:48:52;;;;;;;10.27;4.60;;;;;;;;;;10370107;28;20061;-64
2022/02/02 09:53:59;;;;;;;12.60;4.50;;;;;;;;;;10369014;28;20030;-62
2022/02/02 09:59:16;;;;;;;10.25;4.60;;;;;;;;;;10368168;28;20117;-67
2022/02/02 10:14:54;;;;;;;7.30;4.15;;;;;;;;;;10369277;28;20045;-70
2022/02/02 10:19:54;;;;;;;7.97;4.17;;;;;;;;;;10369900;28;20033;-68
2022/02/02 10:25:00;;;;;;;4.83;4.10;;;;;;;;;;10368358;28;20455;-68
2022/02/02 10:30:11;;;;;;;9.07;4.22;;;;;;;;;;10368500;28;20095;-68
2022/02/02 10:35:29;;;;;;;11.70;4.68;;;;;;;;;;10366852;28;20469;-70
2022/02/02 10:40:47;;;;;;;7.67;4.43;;;;;;;;;;10364923;28;20026;-69
2022/02/02 10:45:48;;;;;;;9.55;4.47;;;;;;;;;;10362402;28;20115;-67
2022/02/02 10:51:00;;;;;;;6.10;3.97;;;;;;;;;;10366533;28;20088;-65
2022/02/02 10:56:31;;;;;;;8.95;4.00;;;;;;;;;;10367803;28;20030;-73
2022/02/02 11:01:41;;;;;;;8.05;3.90;;;;;;;;;;10366791;28;20029;-67
2022/02/02 11:06:42;;;;;;;8.13;4.43;;;;;;;;;;10368302;28;20030;-73
2022/02/02 11:11:53;;;;;;;6.50;3.90;;;;;;;;;;10366950;28;20026;-67
2022/02/02 11:16:59;;;;;;;5.45;3.78;;;;;;;;;;10366864;28;20045;-68
2022/02/02 11:22:30;;;;;;;8.20;4.18;;;;;;;;;;10367810;28;20037;-64
2022/02/02 11:27:38;;;;;;;5.20;3.50;;;;;;;;;;10367814;28;20034;-64
2022/02/02 11:32:45;;;;;;;6.53;3.95;;;;;;;;;;10367630;28;20049;-64
2022/02/02 11:38:00;;;;;;;4.90;3.67;;;;;;;;;;10362815;28;20036;-72
2022/02/02 11:43:13;;;;;;;6.60;3.90;;;;;;;;;;10371110;28;20022;-65
2022/02/02 11:49:00;;;;;;;7.72;4.18;;;;;;;;;;10370025;28;20060;-65
2022/02/02 11:54:01;;;;;;;5.40;3.58;;;;;;;;;;10368846;28;20139;-65
2022/02/02 11:59:43;;;;;;;7.00;3.53;;;;;;;;;;10375064;28;20181;-64
2022/02/02 12:05:04;;;;;;;9.52;3.97;;;;;;;;;;10373179;28;20037;-64
2022/02/02 12:10:06;;;;;;;9.30;3.47;;;;;;;;;;10371387;28;20054;-67
2022/02/02 12:21:27;;;;;;;6.25;3.65;;;;;;;;;;10371533;28;20212;-68
2022/02/02 12:57:26;;;;;;;11.02;4.15;;;;;;;;;;10363165;28;20248;-63
2022/02/02 13:02:26;;;;;;;5.15;3.88;;;;;;;;;;10365119;28;20135;-66
2022/02/02 13:07:30;;;;;;;10.23;3.80;;;;;;;;;;10366156;28;20092;-63
2022/02/02 13:18:02;;;;;;;7.90;3.30;;;;;;;;;;10364282;28;20225;-62
2022/02/02 13:23:07;;;;;;;7.13;3.63;;;;;;;;;;10369014;28;20512;-63
2022/02/02 13:28:09;;;;;;;8.23;4.22;;;;;;;;;;10370301;28;20513;-67
2022/02/02 13:33:20;;;;;;;8.70;3.70;;;;;;;;;;10369420;28;20018;-64
2022/02/02 13:38:43;;;;;;;9.60;3.63;;;;;;;;;;10370661;28;20022;-65
2022/02/02 13:44:09;;;;;;;7.25;3.58;;;;;;;;;;10368710;28;20029;-67
2022/02/02 13:49:41;;;;;;;5.20;3.40;;;;;;;;;;10368017;28;20018;-67
2022/02/02 13:54:46;;;;;;;7.10;3.45;;;;;;;;;;10368678;28;20042;-67
2022/02/02 14:00:24;;;;;;;12.98;3.70;;;;;;;;;;10369362;28;20111;-67
2022/02/02 14:10:57;;;;;;;8.77;3.63;;;;;;;;;;10367908;28;20405;-66
2022/02/02 14:31:55;;;;;;;5.63;2.78;;;;;;;;;;10368240;28;20033;-66
2022/02/02 14:36:55;;;;;;;4.25;2.90;;;;;;;;;;10368139;28;20500;-66
2022/02/02 14:42:07;;;;;;;4.80;3.17;;;;;;;;;;10368250;28;20095;-66
2022/02/02 14:47:12;;;;;;;6.50;2.80;;;;;;;;;;10369198;28;20398;-66
2022/02/02 15:31:23;;;;;;;5.75;3.10;;;;;;;;;;10366082;28;20037;-66
2022/02/02 16:03:09;;;;;;;7.00;3.42;;;;;;;;;;10367436;28;19913;-65
2022/02/02 16:08:11;;;;;;;6.80;3.42;;;;;;;;;;10367829;28;20022;-65
2022/02/02 16:13:27;;;;;;;6.22;3.50;;;;;;;;;;10367383;28;20033;-65
2022/02/02 16:40:01;;;;;;;8.38;2.92;;;;;;;;;;10369385;28;20425;-66
2022/02/02 16:45:04;;;;;;;6.78;3.33;;;;;;;;;;10373431;28;20033;-66
2022/02/02 16:50:05;;;;;;;8.98;3.15;;;;;;;;;;10373130;28;20030;-66
2022/02/02 16:55:12;;;;;;;7.50;3.63;;;;;;;;;;10373061;28;20029;-66
2022/02/02 18:34:12;;;;;;;10.68;4.47;;;;;;;;;;10370476;28;20038;-66
2022/02/02 20:13:15;;;;;;;8.60;5.50;;;;;;;;;;10371614;28;20061;-66
2022/02/02 20:18:16;;;;;;;10.85;6.40;;;;;;;;;;10372877;28;20026;-61
2022/02/02 20:23:17;;;;;;;15.65;6.43;;;;;;;;;;10370296;28;20040;-63
2022/02/02 20:28:18;;;;;;;14.18;7.07;;;;;;;;;;10373097;28;20043;-64
2022/02/02 20:33:19;;;;;;;13.48;6.75;;;;;;;;;;10372939;28;20022;-64
2022/02/02 20:38:19;;;;;;;11.13;6.25;;;;;;;;;;10371455;28;20235;-66
2022/02/02 20:44:26;;;;;;;17.63;7.50;;;;;;;;;;10373530;28;20076;-67
2022/02/02 21:04:56;;;;;;;;;;;;;;;;;;10372557;28;20472;-67
2022/02/02 21:10:11;;;;;;;13.32;6.40;;;;;;;;;;10372194;28;19909;-67
2022/02/02 21:15:16;;;;;;;8.63;5.72;;;;;;;;;;10369533;28;20042;-66
2022/02/02 21:20:24;;;;;;;8.82;5.90;;;;;;;;;;10371683;28;20394;-63
2022/02/02 21:30:35;;;;;;;29.42;9.05;;;;;;;;;;10368805;28;20660;-65
2022/02/02 21:35:39;;;;;;;26.70;7.82;;;;;;;;;;10369384;28;20026;-67
2022/02/02 21:40:40;;;;;;;19.50;8.18;;;;;;;;;;10370314;28;20041;-66
2022/02/02 21:45:42;;;;;;;15.30;7.20;;;;;;;;;;10366069;28;20041;-67
2022/02/02 21:50:52;;;;;;;17.33;7.00;;;;;;;;;;10371776;28;20044;-66
2022/02/02 21:55:53;;;;;;;15.68;6.90;;;;;;;;;;10371064;28;20038;-65
2022/02/02 22:00:54;;;;;;;14.30;7.72;;;;;;;;;;10370268;28;20115;-66
2022/02/02 22:05:55;;;;;;;14.65;6.88;;;;;;;;;;10369276;28;20084;-67
2022/02/02 22:10:55;;;;;;;15.35;6.65;;;;;;;;;;10369906;28;20022;-66
2022/02/02 22:15:59;;;;;;;11.27;6.07;;;;;;;;;;10368011;28;20076;-65
2022/02/02 22:21:00;;;;;;;13.23;6.22;;;;;;;;;;10364393;28;20335;-66
2022/02/02 22:26:02;;;;;;;13.07;6.90;;;;;;;;;;10368520;28;20037;-65
2022/02/02 22:31:02;;;;;;;11.27;6.85;;;;;;;;;;10368241;28;20037;-65
2022/02/02 22:36:03;;;;;;;16.02;6.88;;;;;;;;;;10367675;28;20033;-65
2022/02/02 22:41:04;;;;;;;11.73;6.40;;;;;;;;;;10367973;28;20025;-62
2022/02/02 22:46:04;;;;;;;12.68;6.45;;;;;;;;;;10367209;28;20485;-62
2022/02/02 22:51:05;;;;;;;19.48;7.40;;;;;;;;;;10367309;28;20030;-68
2022/02/02 22:56:05;;;;;;;22.55;7.50;;;;;;;;;;10365777;28;20265;-67
2022/02/02 23:01:05;;;;;;;14.95;6.78;;;;;;;;;;10365375;28;20106;-67
2022/02/02 23:06:06;;;;;;;13.43;7.30;;;;;;;;;;10365815;28;20022;-64
2022/02/02 23:11:07;;;;;;;12.03;6.47;;;;;;;;;;10364247;28;20834;-67
2022/02/02 23:16:12;;;;;;;15.98;6.97;;;;;;;;;;10365080;28;20491;-65
2022/02/02 23:21:13;;;;;;;20.58;7.28;;;;;;;;;;10366033;28;20105;-66
2022/02/02 23:26:15;;;;;;;17.33;8.00;;;;;;;;;;10364066;28;20022;-67
2022/02/02 23:31:17;;;;;;;21.95;7.78;;;;;;;;;;10367596;28;20084;-67
2022/02/02 23:36:18;;;;;;;13.95;7.20;;;;;;;;;;10369246;28;20109;-66
2022/02/02 23:46:28;;;;;;;17.70;7.43;;;;;;;;;;10373280;28;20036;-65
2022/02/02 23:51:33;;;;;;;18.40;7.28;;;;;;;;;;10375370;28;20065;-65
